Time;durP1;ratioP1;P1;durP2;ratioP2;P2;SDS_P1;SDS_P2;PMS_P1;PMS_P2;Temp;Humidity;BMP_temperature;BMP_pressure;BME280_temperature;BME280_humidity;BME280_pressure;Samples;Min_cycle;Max_cycle;Signal;HPM_P1;HPM_P2
2022/03/17 00:01:17;;;;;;;19.90;15.48;;;;;;;9.80;76.00;101921.88;4700422;30;20112;-83
2022/03/17 00:03:42;;;;;;;19.90;15.68;;;;;;;9.55;75.90;101875.66;4700265;30;20041;-83
2022/03/17 00:06:11;;;;;;;20.23;16.58;;;;;;;9.48;76.02;101866.50;4700260;30;20036;-82
2022/03/17 00:08:37;;;;;;;19.52;15.55;;;;;;;9.26;75.79;101839.94;4700345;30;20124;-85
2022/03/17 00:11:03;;;;;;;20.05;15.73;;;;;;;9.63;75.99;101899.38;4684496;30;20041;-83
2022/03/17 00:13:28;;;;;;;20.00;16.67;;;;;;;9.65;76.08;101910.47;4700179;30;20399;-85
2022/03/17 00:15:54;;;;;;;19.63;16.23;;;;;;;9.52;76.23;101886.09;4700049;30;20046;-84
2022/03/17 00:18:19;;;;;;;20.20;15.73;;;;;;;9.48;76.20;101882.81;4684563;30;20029;-82
2022/03/17 00:20:44;;;;;;;19.77;15.90;;;;;;;9.41;76.40;101868.47;4699938;30;20037;-80
2022/03/17 00:23:10;;;;;;;20.52;16.05;;;;;;;9.67;76.75;101918.97;4700062;30;20033;-85
2022/03/17 00:25:35;;;;;;;21.40;16.23;;;;;;;9.65;76.71;101917.38;4700133;30;20041;-79
2022/03/17 00:28:03;;;;;;;21.23;16.15;;;;;;;9.42;76.83;101884.78;4700031;30;20033;-80
2022/03/17 00:30:29;;;;;;;19.63;16.38;;;;;;;9.56;77.00;101907.44;4699582;30;20506;-80
2022/03/17 00:32:54;;;;;;;19.80;17.05;;;;;;;9.61;76.88;101915.81;4700067;30;20034;-78
2022/03/17 00:38:08;;;;;;;21.60;14.68;;;;;;;9.11;77.34;101838.81;4700013;30;20184;-79
2022/03/17 00:40:36;;;;;;;20.58;16.45;;;;;;;9.43;77.29;101895.03;4699954;30;20041;-78
2022/03/17 00:43:04;;;;;;;21.75;16.55;;;;;;;9.49;77.66;101912.00;4699462;30;20395;-78
2022/03/17 00:45:29;;;;;;;21.55;17.13;;;;;;;9.46;77.82;101915.56;4699701;30;20033;-78
2022/03/17 00:47:55;;;;;;;19.50;15.30;;;;;;;9.29;77.89;101893.94;4683973;30;20041;-78
2022/03/17 00:50:20;;;;;;;20.08;16.55;;;;;;;9.42;77.84;101926.03;4708521;30;20105;-78
2022/03/17 00:52:46;;;;;;;18.55;15.98;;;;;;;9.08;78.08;101872.44;4701190;30;20045;-78
2022/03/17 00:55:11;;;;;;;21.05;16.13;;;;;;;9.38;78.11;101937.38;4717030;30;20033;-78
2022/03/17 00:57:37;;;;;;;19.90;15.93;;;;;;;9.35;78.62;101940.09;4716768;30;20834;-79
2022/03/17 01:00:07;;;;;;;20.13;16.25;;;;;;;9.13;78.45;101901.44;4717068;30;20044;-79
2022/03/17 01:02:33;;;;;;;19.85;15.60;;;;;;;9.31;78.85;101929.06;4716984;30;20029;-84
2022/03/17 01:04:58;;;;;;;19.17;15.40;;;;;;;8.98;79.00;101876.28;4716771;30;20081;-85
2022/03/17 01:07:26;;;;;;;19.33;15.23;;;;;;;8.89;79.33;101862.88;4716982;30;20037;-84
2022/03/17 01:09:54;;;;;;;20.45;15.77;;;;;;;9.34;79.13;101916.06;4703814;30;20047;-82
2022/03/17 01:12:19;;;;;;;19.75;14.93;;;;;;;8.99;78.92;101853.03;4720217;30;20479;-82
2022/03/17 01:14:47;;;;;;;20.90;16.23;;;;;;;9.34;78.88;101918.63;4720184;30;20124;-79
2022/03/17 01:17:30;;;;;;;19.80;15.77;;;;;;;9.39;79.54;101911.53;4720344;30;20408;-79
2022/03/17 01:19:58;;;;;;;20.65;16.83;;;;;;;9.20;79.56;101866.78;4719478;30;20048;-84
2022/03/17 01:22:39;;;;;;;21.50;15.50;;;;;;;8.70;79.09;101779.50;4720242;30;20030;-83
2022/03/17 01:25:05;;;;;;;20.13;15.47;;;;;;;8.74;79.50;101778.47;4720281;30;20039;-80
2022/03/17 01:27:31;;;;;;;19.67;15.27;;;;;;;9.21;78.88;101847.84;4720193;30;20287;-85
2022/03/17 01:30:00;;;;;;;19.85;15.55;;;;;;;9.66;79.08;101908.75;4719717;30;20041;-83
2022/03/17 01:32:33;;;;;;;21.52;16.05;;;;;;;9.65;79.10;101913.06;4720138;30;20115;-85
2022/03/17 01:34:59;;;;;;;19.85;16.25;;;;;;;9.18;78.93;101835.94;4719844;30;20033;-82
2022/03/17 01:37:25;;;;;;;19.52;16.38;;;;;;;9.70;79.38;101923.16;4719841;30;20132;-85
2022/03/17 01:40:15;;;;;;;20.75;15.88;;;;;;;9.62;79.21;101912.31;4719868;30;20111;-79
2022/03/17 01:42:46;;;;;;;20.33;15.55;;;;;;;9.33;79.28;101851.66;4706639;30;20075;-85
2022/03/17 01:45:40;;;;;;;22.40;16.48;;;;;;;9.49;79.24;101866.44;4718709;30;20029;-78
2022/03/17 01:48:14;;;;;;;20.38;15.40;;;;;;;9.87;78.95;101912.97;4719761;30;20029;-78
2022/03/17 01:50:55;;;;;;;23.20;16.00;;;;;;;9.25;79.02;101823.66;4699342;30;20058;-83
2022/03/17 01:53:24;;;;;;;18.83;15.27;;;;;;;9.39;79.17;101847.09;4700365;30;20069;-78
2022/03/17 01:55:49;;;;;;;19.73;15.55;;;;;;;9.67;79.04;101895.78;4700434;30;20084;-79
2022/03/17 01:58:17;;;;;;;19.05;15.02;;;;;;;9.63;79.52;101896.78;4700387;30;20042;-79
2022/03/17 02:00:43;;;;;;;22.08;16.48;;;;;;;9.82;79.72;101908.91;4700115;30;20049;-83
2022/03/17 02:03:08;;;;;;;21.05;15.93;;;;;;;9.75;80.36;101908.34;4700400;30;20045;-84
2022/03/17 02:05:34;;;;;;;21.50;16.13;;;;;;;9.82;80.65;101904.59;4700261;30;20056;-84
2022/03/17 02:08:00;;;;;;;20.73;16.05;;;;;;;9.94;80.98;101919.56;4700067;30;20075;-78
2022/03/17 02:13:08;;;;;;;22.60;15.68;;;;;;;9.95;81.14;101923.81;4700114;30;20053;-78
2022/03/17 02:13:14;;;;;;;20.58;16.27;;;;;;;9.99;81.34;101915.03;4700099;30;20042;-79
2022/03/17 02:15:40;;;;;;;20.77;16.30;;;;;;;9.91;81.60;101909.34;4700229;30;20049;-78
2022/03/17 02:18:06;;;;;;;20.63;16.23;;;;;;;10.03;81.38;101928.66;4700233;30;20128;-79
2022/03/17 02:20:33;;;;;;;19.15;15.70;;;;;;;10.04;81.51;101938.91;4700358;30;20451;-78
2022/03/17 02:25:50;;;;;;;22.10;16.52;;;;;;;9.97;81.75;101931.50;4719523;30;20145;-78
2022/03/17 02:28:16;;;;;;;23.40;16.20;;;;;;;9.98;81.68;101926.25;4719481;30;20033;-78
2022/03/17 02:30:41;;;;;;;22.08;16.17;;;;;;;10.01;81.72;101928.69;4719312;30;20045;-79
2022/03/17 02:33:08;;;;;;;21.50;17.02;;;;;;;10.03;81.71;101928.66;4719301;30;20059;-75
2022/03/17 02:35:34;;;;;;;21.10;16.92;;;;;;;10.02;81.68;101943.28;4719253;30;20037;-78
2022/03/17 02:38:03;;;;;;;19.35;16.48;;;;;;;9.76;81.66;101897.97;4719022;30;20065;-80
2022/03/17 02:40:28;;;;;;;24.10;16.83;;;;;;;9.71;81.97;101899.03;4718926;30;20040;-79
2022/03/17 02:42:54;;;;;;;21.42;16.23;;;;;;;10.02;82.25;101956.19;4719026;30;20037;-77
2022/03/17 02:45:19;;;;;;;24.90;16.88;;;;;;;9.77;82.16;101911.69;4719022;30;20062;-81
2022/03/17 02:47:45;;;;;;;23.08;16.00;;;;;;;10.02;82.55;101953.59;4719067;30;20070;-78
2022/03/17 02:50:11;;;;;;;21.08;16.13;;;;;;;9.89;82.82;101942.13;4711073;30;20057;-78
2022/03/17 02:52:36;;;;;;;21.48;16.48;;;;;;;10.03;83.24;101968.22;4701398;30;20041;-78
2022/03/17 02:55:03;;;;;;;23.88;17.30;;;;;;;9.82;83.69;101930.38;4701474;30;20029;-79
2022/03/17 02:57:28;;;;;;;21.95;17.50;;;;;;;9.80;84.26;101939.94;4701294;30;20436;-78
2022/03/17 02:59:54;;;;;;;22.75;18.02;;;;;;;10.00;84.72;101975.22;4701360;30;20112;-77
2022/03/17 03:02:20;;;;;;;23.55;17.95;;;;;;;9.95;86.60;101979.75;4701521;30;20033;-79
2022/03/17 03:04:45;;;;;;;27.88;19.80;;;;;;;9.98;88.16;101993.34;4701050;30;20042;-80
2022/03/17 03:07:10;;;;;;;29.10;21.73;;;;;;;9.63;89.83;101944.94;4701221;30;20033;-78
2022/03/17 03:09:36;;;;;;;26.88;20.67;;;;;;;9.80;91.28;101977.78;4701161;30;20040;-79
2022/03/17 03:12:02;;;;;;;26.25;19.45;;;;;;;9.90;92.93;102003.16;4701063;30;20034;-78
2022/03/17 03:14:31;;;;;;;20.75;16.73;;;;;;;9.83;94.87;102018.94;4701223;30;20048;-78
2022/03/17 03:16:57;;;;;;;19.55;14.75;;;;;;;9.60;95.28;102012.13;4700948;30;20025;-80
2022/03/17 03:19:22;;;;;;;17.17;13.93;;;;;;;9.35;96.05;101983.91;4700921;30;20483;-79
2022/03/17 03:21:48;;;;;;;19.92;13.75;;;;;;;9.45;96.31;102018.75;4700929;30;20026;-86
2022/03/17 03:24:14;;;;;;;16.30;12.52;;;;;;;9.16;97.07;101976.91;4701075;30;20044;-83
2022/03/17 03:26:40;;;;;;;14.43;12.02;;;;;;;9.33;97.29;102035.50;4700856;30;20399;-78
2022/03/17 03:31:57;;;;;;;13.15;10.70;;;;;;;9.17;98.48;102035.28;4700726;30;20056;-84
2022/03/17 03:34:29;;;;;;;13.30;10.15;;;;;;;9.15;98.26;102055.13;4700052;30;20124;-84
2022/03/17 03:39:58;;;;;;;13.25;10.88;;;;;;;8.79;97.93;102041.84;4700753;30;20400;-80
2022/03/17 03:42:43;;;;;;;12.10;10.80;;;;;;;8.25;97.78;101949.34;4700798;30;20036;-85
2022/03/17 03:47:52;;;;;;;14.25;12.00;;;;;;;8.68;97.02;102056.00;4700530;30;20045;-85
2022/03/17 03:50:28;;;;;;;15.25;13.02;;;;;;;8.57;97.05;102051.22;4700259;30;20514;-84
2022/03/17 03:52:55;;;;;;;17.45;15.25;;;;;;;8.57;97.08;102057.22;4700375;30;20038;-81
2022/03/17 03:55:21;;;;;;;16.98;14.32;;;;;;;8.73;96.91;102109.00;4684726;30;20034;-84
2022/03/17 03:57:48;;;;;;;17.77;15.55;;;;;;;8.85;96.46;102143.81;4700448;30;20263;-79
2022/03/17 04:00:35;;;;;;;16.77;14.05;;;;;;;8.63;95.86;102121.34;4700184;30;20087;-79
2022/03/17 04:03:03;;;;;;;17.67;14.10;;;;;;;8.67;95.34;102137.56;4700052;30;20048;-80
2022/03/17 04:05:34;;;;;;;17.98;14.05;;;;;;;8.76;95.06;102163.00;4700197;30;20044;-79
2022/03/17 04:08:00;;;;;;;19.65;15.75;;;;;;;8.44;94.91;102119.44;4700120;30;20368;-78
2022/03/17 04:10:27;;;;;;;21.92;17.60;;;;;;;8.60;94.81;102172.97;4700136;30;20033;-78
2022/03/17 04:12:53;;;;;;;21.85;18.02;;;;;;;8.50;94.53;102176.75;4700097;30;20036;-78
2022/03/17 04:15:19;;;;;;;21.13;18.50;;;;;;;8.34;94.45;102168.66;4699902;30;20037;-79
2022/03/17 04:17:44;;;;;;;22.58;18.00;;;;;;;8.50;94.41;102196.50;4700264;30;20026;-79
2022/03/17 04:20:10;;;;;;;23.48;17.10;;;;;;;8.49;94.50;102199.97;4700289;30;20030;-76
2022/03/17 04:22:35;;;;;;;22.75;17.30;;;;;;;8.46;94.82;102213.78;4699857;30;20033;-79
2022/03/17 04:25:01;;;;;;;22.77;17.67;;;;;;;8.42;94.94;102226.78;4684089;30;20118;-80
2022/03/17 04:27:26;;;;;;;22.25;16.38;;;;;;;8.42;95.42;102229.34;4699982;30;20044;-78
2022/03/17 04:29:52;;;;;;;22.65;16.70;;;;;;;8.14;95.75;102196.72;4699575;30;20041;-78
2022/03/17 04:32:17;;;;;;;18.95;15.45;;;;;;;8.31;95.73;102238.22;4684443;30;20029;-79
2022/03/17 04:34:43;;;;;;;21.58;16.45;;;;;;;8.26;96.75;102254.72;4699796;30;20041;-79
2022/03/17 04:37:08;;;;;;;22.45;17.02;;;;;;;8.22;97.00;102258.25;4699829;30;20160;-79
2022/03/17 04:39:33;;;;;;;22.90;16.63;;;;;;;8.03;97.60;102234.81;4699635;30;20041;-84
2022/03/17 04:42:06;;;;;;;22.52;17.42;;;;;;;8.13;97.79;102263.66;4699709;30;20108;-79
2022/03/17 04:44:31;;;;;;;22.55;17.20;;;;;;;8.21;98.18;102284.88;4699025;30;20407;-78
2022/03/17 04:46:57;;;;;;;21.60;16.83;;;;;;;8.16;98.81;102289.31;4699733;30;20029;-78
2022/03/17 04:49:22;;;;;;;22.77;16.98;;;;;;;8.13;99.09;102302.25;4699706;30;20029;-78
2022/03/17 04:51:48;;;;;;;22.83;17.48;;;;;;;7.91;98.41;102268.59;4699441;30;20450;-79
2022/03/17 04:54:13;;;;;;;22.98;19.05;;;;;;;8.01;97.42;102306.88;4699421;30;20029;-78
2022/03/17 04:56:38;;;;;;;25.13;18.95;;;;;;;7.73;96.78;102260.53;4699521;30;20057;-79
2022/03/17 04:59:04;;;;;;;24.38;18.67;;;;;;;7.71;96.45;102279.47;4699493;30;20038;-80
2022/03/17 05:01:29;;;;;;;22.95;18.27;;;;;;;7.83;96.29;102303.97;4684008;30;20092;-80
2022/03/17 05:03:54;;;;;;;22.23;16.75;;;;;;;7.89;95.17;102332.13;4699707;30;20029;-82
2022/03/17 05:06:20;;;;;;;19.88;12.18;;;;;;;7.64;93.60;102319.06;4699688;30;20487;-77
2022/03/17 05:08:46;;;;;;;17.25;11.32;;;;;;;7.31;93.62;102270.25;4699289;30;20059;-78
2022/03/17 05:11:13;;;;;;;16.05;9.45;;;;;;;7.75;93.10;102365.91;4699478;30;20051;-78
2022/03/17 05:13:39;;;;;;;13.32;7.45;;;;;;;7.53;92.26;102354.50;4699670;30;20120;-78
2022/03/17 05:16:05;;;;;;;16.13;8.27;;;;;;;7.66;92.53;102381.56;4699383;30;20117;-77
2022/03/17 05:18:31;;;;;;;18.10;8.60;;;;;;;7.66;92.37;102395.28;4699422;30;20034;-79
2022/03/17 05:20:56;;;;;;;13.95;6.50;;;;;;;7.55;91.03;102391.28;4699545;30;20044;-78
2022/03/17 05:23:21;;;;;;;11.98;5.30;;;;;;;7.44;89.83;102389.00;4683778;30;20030;-85
2022/03/17 05:25:49;;;;;;;9.18;4.80;;;;;;;7.41;89.90;102395.06;4699265;30;20040;-78
2022/03/17 05:28:14;;;;;;;10.88;5.03;;;;;;;7.48;88.48;102432.59;4699357;30;20037;-79
2022/03/17 05:30:41;;;;;;;9.27;4.28;;;;;;;7.34;88.31;102408.09;4683637;30;20037;-80
2022/03/17 05:33:07;;;;;;;11.30;4.65;;;;;;;7.44;88.28;102446.38;4699288;30;20030;-79
2022/03/17 05:35:33;;;;;;;8.60;3.88;;;;;;;7.32;88.02;102426.13;4699295;30;20394;-78
2022/03/17 05:38:00;;;;;;;9.45;3.97;;;;;;;7.32;87.58;102433.81;4699098;30;20053;-84
2022/03/17 05:40:26;;;;;;;10.18;3.45;;;;;;;6.88;87.92;102366.38;4697366;30;20396;-79
2022/03/17 05:42:54;;;;;;;9.68;3.33;;;;;;;7.43;87.52;102460.13;4699164;30;20037;-78
2022/03/17 05:45:20;;;;;;;12.57;4.03;;;;;;;7.26;87.23;102445.97;4699188;30;20037;-78
2022/03/17 05:47:51;;;;;;;9.20;3.53;;;;;;;7.15;86.23;102433.38;4699133;30;20057;-78
2022/03/17 05:53:28;;;;;;;;;;;;;;;7.43;86.73;102496.09;4700190;30;20060;-78
2022/03/17 05:55:53;;;;;;;10.35;3.08;;;;;;;7.38;86.50;102497.94;4701597;30;20288;-79
2022/03/17 05:58:18;;;;;;;6.93;3.13;;;;;;;6.69;86.46;102390.75;4702340;30;20025;-78
2022/03/17 06:00:44;;;;;;;9.75;3.03;;;;;;;6.59;86.59;102381.56;4702239;30;20041;-77
2022/03/17 06:03:09;;;;;;;9.48;2.67;;;;;;;7.18;86.02;102498.41;4702456;30;20032;-78
2022/03/17 06:05:34;;;;;;;6.93;2.55;;;;;;;7.30;86.15;102522.97;4686044;30;20103;-79
2022/03/17 06:08:00;;;;;;;6.00;2.58;;;;;;;7.08;85.61;102498.59;4702071;30;20472;-78
2022/03/17 06:10:33;;;;;;;12.35;3.08;;;;;;;7.25;86.23;102531.63;4701969;30;20395;-79
2022/03/17 06:13:00;;;;;;;8.23;2.60;;;;;;;7.08;85.69;102512.31;4702056;30;20049;-79
2022/03/17 06:15:26;;;;;;;5.40;2.20;;;;;;;7.00;85.02;102528.75;4702174;30;20087;-78
2022/03/17 06:17:54;;;;;;;8.15;2.20;;;;;;;7.17;84.92;102552.34;4686515;30;20030;-80
2022/03/17 06:20:22;;;;;;;8.38;2.53;;;;;;;6.96;84.45;102522.81;4702000;30;20029;-84
2022/03/17 06:22:50;;;;;;;8.32;2.10;;;;;;;7.10;84.08;102545.69;4702083;30;20067;-82
2022/03/17 06:25:17;;;;;;;9.43;2.20;;;;;;;7.11;84.42;102561.06;4701677;30;20500;-78
2022/03/17 06:27:46;;;;;;;7.68;2.55;;;;;;;7.09;84.47;102573.09;4701880;30;20061;-78
2022/03/17 06:30:19;;;;;;;7.00;2.10;;;;;;;7.04;84.73;102566.34;4702033;30;20034;-79
2022/03/17 06:32:45;;;;;;;6.80;2.05;;;;;;;7.15;84.91;102590.09;4701974;30;20029;-80
2022/03/17 06:35:17;;;;;;;10.30;2.85;;;;;;;7.04;84.65;102576.63;4702001;30;20040;-83
2022/03/17 06:37:42;;;;;;;9.35;2.60;;;;;;;6.81;84.89;102551.41;4702061;30;20033;-84
2022/03/17 06:40:08;;;;;;;7.28;2.53;;;;;;;7.00;85.81;102593.81;4701659;30;20394;-84
2022/03/17 06:42:33;;;;;;;8.35;2.53;;;;;;;6.98;85.62;102593.00;4701955;30;20045;-83
2022/03/17 06:44:59;;;;;;;10.00;2.75;;;;;;;7.11;85.75;102619.28;4701978;30;20038;-83
2022/03/17 06:47:25;;;;;;;6.28;2.40;;;;;;;7.14;85.81;102629.50;4701701;30;20033;-84
2022/03/17 06:49:51;;;;;;;5.25;2.30;;;;;;;7.04;85.58;102603.16;4699762;30;20045;-85
2022/03/17 06:52:17;;;;;;;7.38;2.78;;;;;;;7.19;85.15;102641.41;4692429;30;20453;-82
2022/03/17 06:54:42;;;;;;;8.13;2.05;;;;;;;7.22;85.12;102642.19;4718652;30;20044;-83
2022/03/17 06:57:10;;;;;;;6.68;2.10;;;;;;;7.21;85.59;102646.50;4718976;30;20045;-82
2022/03/17 06:59:36;;;;;;;8.45;2.10;;;;;;;7.11;85.13;102625.28;4718991;30;20055;-84
2022/03/17 07:02:01;;;;;;;7.50;2.40;;;;;;;7.31;85.54;102652.28;4718719;30;20033;-83
2022/03/17 07:04:26;;;;;;;7.28;2.50;;;;;;;7.36;84.82;102664.16;4718843;30;20033;-85
2022/03/17 07:06:52;;;;;;;9.38;3.22;;;;;;;7.34;84.83;102654.78;4717828;30;20106;-83
2022/03/17 07:09:17;;;;;;;10.88;2.35;;;;;;;7.46;83.75;102673.38;4718725;30;20036;-84
2022/03/17 07:11:44;;;;;;;9.23;2.10;;;;;;;7.52;83.78;102672.41;4718694;30;20111;-84
2022/03/17 07:14:10;;;;;;;10.95;2.10;;;;;;;7.53;83.66;102681.81;4718749;30;20029;-79
2022/03/17 07:16:35;;;;;;;8.80;1.90;;;;;;;7.48;83.01;102684.50;4718281;30;20033;-79
2022/03/17 07:19:03;;;;;;;8.23;2.00;;;;;;;7.39;83.08;102684.69;4718500;30;20045;-82
2022/03/17 07:21:28;;;;;;;5.18;1.50;;;;;;;7.48;83.91;102704.22;4718382;30;20067;-81
2022/03/17 07:23:54;;;;;;;7.97;2.05;;;;;;;7.45;84.40;102704.25;4718298;30;20057;-84
2022/03/17 07:26:19;;;;;;;7.88;2.03;;;;;;;7.29;86.44;102714.00;4718082;30;20033;-83
2022/03/17 07:28:45;;;;;;;8.38;2.10;;;;;;;6.98;87.78;102703.47;4718435;30;20037;-83
2022/03/17 07:31:10;;;;;;;7.85;2.28;;;;;;;6.99;88.19;102727.41;4718363;30;20033;-82
2022/03/17 07:33:37;;;;;;;6.28;1.80;;;;;;;6.80;88.96;102701.22;4718325;30;20111;-83
2022/03/17 07:36:04;;;;;;;10.38;2.70;;;;;;;7.00;88.98;102727.38;4718260;30;20029;-83
2022/03/17 07:38:29;;;;;;;9.93;2.10;;;;;;;7.05;88.67;102722.16;4716950;30;20029;-81
2022/03/17 07:40:54;;;;;;;7.97;1.80;;;;;;;7.18;87.90;102733.91;4717255;30;20060;-82
2022/03/17 07:43:20;;;;;;;5.72;2.20;;;;;;;7.06;88.02;102711.00;4718155;30;20033;-77
2022/03/17 07:45:46;;;;;;;6.78;1.80;;;;;;;7.14;87.96;102727.97;4718173;30;20033;-79
2022/03/17 07:48:12;;;;;;;9.93;2.72;;;;;;;7.31;87.19;102755.09;4718149;30;20088;-78
2022/03/17 07:50:37;;;;;;;6.50;1.65;;;;;;;7.32;87.16;102762.78;4717837;30;20041;-78
2022/03/17 07:53:08;;;;;;;10.05;1.80;;;;;;;7.04;86.32;102716.16;4705923;30;20045;-84
2022/03/17 07:55:35;;;;;;;10.80;1.77;;;;;;;7.06;86.56;102714.41;4700339;30;20037;-78
2022/03/17 07:58:01;;;;;;;10.60;2.97;;;;;;;7.40;85.95;102773.75;4700407;30;20077;-79
2022/03/17 08:03:03;;;;;;;8.85;1.98;;;;;;;7.22;84.96;102719.28;4909285;24;20060;-76
2022/03/17 08:06:12;;;;;;;10.43;2.05;;;;;;;6.64;84.22;102625.31;4764415;30;20103;-82
2022/03/17 08:08:38;;;;;;;8.82;2.10;;;;;;;7.45;83.73;102764.22;4771173;30;20052;-78
2022/03/17 08:11:48;;;;;;;10.48;1.70;;;;;;;7.65;84.14;102817.84;4770053;30;20425;-75
2022/03/17 08:14:16;;;;;;;12.43;2.42;;;;;;;6.76;83.17;102684.16;4770632;30;20032;-75
2022/03/17 08:16:47;;;;;;;13.63;2.83;;;;;;;6.77;82.90;102684.09;4768850;30;20044;-75
2022/03/17 08:19:20;;;;;;;9.68;1.67;;;;;;;7.62;82.59;102817.91;4770262;30;20509;-81
2022/03/17 08:21:58;;;;;;;9.43;1.88;;;;;;;6.81;81.89;102678.06;4770347;30;20032;-75
2022/03/17 08:24:38;;;;;;;9.38;2.00;;;;;;;7.03;80.87;102698.22;4770165;30;20046;-76
2022/03/17 08:27:07;;;;;;;9.40;2.47;;;;;;;7.98;80.53;102842.06;4769801;30;20031;-75
2022/03/17 08:29:32;;;;;;;10.93;2.60;;;;;;;7.81;79.86;102795.25;4770049;30;20035;-75
2022/03/17 08:31:59;;;;;;;11.75;2.30;;;;;;;8.04;78.34;102831.63;4769694;30;20038;-77
2022/03/17 08:34:25;;;;;;;10.82;1.98;;;;;;;8.22;78.03;102855.31;4770181;30;20043;-77
2022/03/17 08:36:54;;;;;;;8.73;1.98;;;;;;;8.22;77.11;102863.88;4770044;30;20492;-81
2022/03/17 08:39:22;;;;;;;10.68;2.50;;;;;;;8.08;76.69;102835.03;4770110;30;20039;-78
2022/03/17 08:41:47;;;;;;;8.38;2.38;;;;;;;8.26;76.92;102862.09;4769652;30;20035;-77
2022/03/17 08:44:12;;;;;;;9.25;2.20;;;;;;;8.43;77.46;102864.34;4770048;30;20495;-77
2022/03/17 08:49:24;;;;;;;12.15;1.83;;;;;;;8.45;74.56;102860.84;4770134;30;20112;-78
2022/03/17 08:51:59;;;;;;;10.27;2.05;;;;;;;8.52;71.73;102877.00;4769813;30;20027;-78
2022/03/17 08:54:28;;;;;;;9.63;2.28;;;;;;;8.46;71.74;102887.47;4769684;30;20031;-77
2022/03/17 08:57:01;;;;;;;7.05;1.98;;;;;;;8.52;71.16;102884.75;4769847;30;20027;-76
2022/03/17 08:59:30;;;;;;;8.75;1.48;;;;;;;8.51;69.81;102890.78;4769894;30;20137;-79
2022/03/17 09:01:57;;;;;;;11.07;2.08;;;;;;;8.37;69.48;102897.97;4769742;30;20079;-80
2022/03/17 09:04:22;;;;;;;8.05;1.60;;;;;;;7.96;70.95;102833.53;4769736;30;20057;-80
2022/03/17 09:06:48;;;;;;;8.45;2.05;;;;;;;8.47;71.37;102914.91;4769857;30;20036;-84
2022/03/17 09:09:13;;;;;;;9.55;1.58;;;;;;;8.54;70.86;102901.00;4769489;30;20473;-84
2022/03/17 09:11:39;;;;;;;9.63;1.63;;;;;;;8.43;70.76;102883.19;4769507;30;20046;-84
2022/03/17 09:14:07;;;;;;;10.88;1.88;;;;;;;8.24;70.58;102867.25;4769692;30;20173;-79
2022/03/17 09:16:33;;;;;;;5.88;1.70;;;;;;;8.46;70.59;102914.06;4769688;30;20032;-79
2022/03/17 09:19:01;;;;;;;7.47;1.83;;;;;;;8.59;70.70;102905.19;4769777;30;20036;-81
2022/03/17 09:24:10;;;;;;;8.88;1.80;;;;;;;7.99;69.17;102801.75;4769847;30;20082;-82
2022/03/17 09:26:42;;;;;;;11.13;1.75;;;;;;;7.86;69.33;102790.00;4769553;30;20089;-80
2022/03/17 09:32:10;;;;;;;8.68;1.80;;;;;;;9.00;69.72;102946.38;4906898;24;19976;-80
2022/03/17 09:34:37;;;;;;;8.55;1.80;;;;;;;8.74;68.01;102901.41;4720263;30;20044;-81
2022/03/17 09:40:25;;;;;;;8.68;2.00;;;;;;;8.85;68.31;102917.50;4720385;30;20051;-79
2022/03/17 09:46:00;;;;;;;10.00;3.35;;;;;;;8.23;66.98;102829.53;4720545;30;20060;-75
2022/03/17 09:48:27;;;;;;;9.68;2.00;;;;;;;8.72;66.48;102916.06;4720027;30;20040;-77
2022/03/17 09:50:57;;;;;;;9.93;2.22;;;;;;;8.69;66.06;102902.41;4718959;30;20049;-77
2022/03/17 09:53:24;;;;;;;18.67;2.67;;;;;;;9.09;65.85;102974.53;4719787;30;20037;-76
2022/03/17 09:55:50;;;;;;;7.95;1.75;;;;;;;8.86;66.13;102951.84;4719952;30;20021;-74
2022/03/17 09:58:16;;;;;;;7.70;1.63;;;;;;;9.02;65.59;102984.09;4703784;30;20132;-77
2022/03/17 10:00:48;;;;;;;8.10;1.90;;;;;;;9.06;65.56;102995.22;4719844;30;20029;-77
2022/03/17 10:03:18;;;;;;;5.88;1.50;;;;;;;9.05;64.99;102993.53;4719683;30;20041;-79
2022/03/17 10:05:45;;;;;;;6.88;1.35;;;;;;;9.05;65.63;103003.84;4719501;30;20552;-81
2022/03/17 10:08:11;;;;;;;6.22;1.65;;;;;;;9.09;65.20;102989.97;4719560;30;20037;-79
2022/03/17 10:10:38;;;;;;;7.70;2.28;;;;;;;9.14;65.41;103007.06;4719658;30;20118;-80
2022/03/17 10:13:11;;;;;;;11.35;1.63;;;;;;;9.18;65.86;102994.94;4719578;30;20064;-79
2022/03/17 10:15:37;;;;;;;6.07;1.65;;;;;;;9.05;64.22;102980.63;4719600;30;20056;-80
2022/03/17 10:18:19;;;;;;;6.07;1.55;;;;;;;9.35;64.66;103030.66;4718036;30;20491;-81
2022/03/17 10:20:45;;;;;;;7.97;1.48;;;;;;;9.33;63.73;103033.25;4719351;30;20068;-81
2022/03/17 10:23:11;;;;;;;9.48;1.45;;;;;;;9.40;63.21;103037.38;4719448;30;20467;-82
2022/03/17 10:25:37;;;;;;;10.70;1.50;;;;;;;9.38;63.16;103046.06;4719506;30;21023;-82
2022/03/17 10:28:03;;;;;;;10.32;1.70;;;;;;;9.26;64.36;103023.13;4719206;30;20112;-79
2022/03/17 10:30:35;;;;;;;10.32;1.92;;;;;;;9.53;63.73;103055.16;4719097;30;20155;-79
2022/03/17 10:33:04;;;;;;;6.20;2.00;;;;;;;9.55;63.14;103067.16;4718904;30;20053;-78
2022/03/17 10:35:36;;;;;;;7.70;1.45;;;;;;;9.51;63.33;103064.66;4719290;30;20039;-80
2022/03/17 10:38:09;;;;;;;6.40;1.45;;;;;;;9.43;63.58;103076.00;4719066;30;20033;-76
2022/03/17 10:40:35;;;;;;;7.53;1.90;;;;;;;9.31;63.03;103060.81;4718363;30;20033;-79
2022/03/17 10:43:24;;;;;;;4.85;1.25;;;;;;;9.30;63.77;103081.47;4718649;30;20058;-75
2022/03/17 10:46:12;;;;;;;3.90;1.40;;;;;;;9.19;63.15;103079.97;4718878;30;20083;-77
2022/03/17 10:48:55;;;;;;;5.25;1.30;;;;;;;9.10;63.68;103076.72;4702713;30;20473;-80
2022/03/17 10:51:41;;;;;;;7.63;1.45;;;;;;;9.20;62.99;103076.50;4719024;30;20037;-81
2022/03/17 10:54:09;;;;;;;5.68;1.75;;;;;;;9.33;62.17;103092.56;4718693;30;20033;-76
2022/03/17 10:56:39;;;;;;;4.85;1.35;;;;;;;9.35;61.02;103090.81;4718919;30;20060;-77
2022/03/17 10:59:07;;;;;;;5.53;1.20;;;;;;;9.36;60.61;103079.63;4718729;30;20044;-78
2022/03/17 11:01:46;;;;;;;5.97;1.27;;;;;;;9.48;60.18;103084.50;4718684;30;20384;-76
2022/03/17 11:04:14;;;;;;;3.33;1.23;;;;;;;9.60;60.56;103104.00;4718670;30;20037;-78
2022/03/17 11:06:40;;;;;;;4.82;1.40;;;;;;;9.70;60.87;103102.91;4717943;30;20044;-82
2022/03/17 11:09:10;;;;;;;6.68;1.55;;;;;;;9.72;60.21;103106.28;4703323;30;20033;-83
2022/03/17 11:11:39;;;;;;;4.47;1.40;;;;;;;9.77;61.11;103101.03;4718873;30;20029;-82
2022/03/17 11:14:13;;;;;;;4.97;1.80;;;;;;;9.92;60.16;103115.31;4718496;30;20025;-81
2022/03/17 11:16:50;;;;;;;5.72;1.45;;;;;;;9.97;60.97;103121.22;4718529;30;20490;-79
2022/03/17 11:19:17;;;;;;;5.93;1.77;;;;;;;9.84;61.42;103094.88;4718476;30;20069;-82
2022/03/17 11:24:32;;;;;;;7.60;2.33;;;;;;;10.14;60.79;103128.56;4718485;30;20092;-81
2022/03/17 11:27:08;;;;;;;7.72;2.13;;;;;;;10.04;60.70;103139.13;4718653;30;20359;-81
2022/03/17 11:29:39;;;;;;;7.13;1.88;;;;;;;10.03;60.52;103141.75;4718089;30;20069;-78
2022/03/17 11:32:08;;;;;;;6.82;2.13;;;;;;;9.88;61.38;103114.53;4717978;30;20069;-78
2022/03/17 11:34:38;;;;;;;7.75;2.05;;;;;;;10.01;61.24;103121.09;4718183;30;20367;-75
2022/03/17 11:37:19;;;;;;;9.23;2.10;;;;;;;10.26;60.33;103148.94;4718268;30;20057;-76
2022/03/17 11:39:53;;;;;;;6.05;1.77;;;;;;;10.28;60.93;103148.03;4718254;30;20041;-77
2022/03/17 11:42:32;;;;;;;7.75;2.78;;;;;;;10.37;60.38;103146.94;4718160;30;20029;-78
2022/03/17 11:45:13;;;;;;;8.10;2.20;;;;;;;10.27;60.77;103119.66;4717972;30;20040;-76
2022/03/17 11:47:50;;;;;;;6.00;1.88;;;;;;;10.12;60.22;103096.75;4718260;30;20496;-76
2022/03/17 11:50:21;;;;;;;6.90;1.88;;;;;;;10.52;59.55;103161.19;4717966;30;20059;-76
2022/03/17 11:52:57;;;;;;;6.60;2.05;;;;;;;10.50;60.03;103157.81;4717735;30;20497;-75
2022/03/17 11:55:56;;;;;;;4.80;1.83;;;;;;;10.50;60.08;103157.81;4717854;30;20394;-72
2022/03/17 11:58:24;;;;;;;19.60;2.30;;;;;;;10.42;59.96;103164.91;4647277;30;20051;-77
2022/03/17 12:00:52;;;;;;;6.15;2.00;;;;;;;10.45;59.27;103163.09;4646925;30;20055;-76
2022/03/17 12:03:32;;;;;;;9.27;2.10;;;;;;;10.60;60.75;103172.19;4664948;24;20034;-75
2022/03/17 12:06:18;;;;;;;5.80;2.28;;;;;;;10.75;59.92;103170.97;4735125;30;20513;-75
2022/03/17 12:08:46;;;;;;;8.02;2.40;;;;;;;10.69;59.15;103178.84;4735075;30;20056;-76